SI-0018 weather

Podpeč field
Ljubljana, Slovenia

Public forecast

Using degrees Celsius for public forecast. Weather courtesy of forecast.io.

METAR (pilot weather report)

Closest report is Ljubljana Jože Pučnik Airport, 15.1 nm (28.0 km) N. Retrieved 2019/07/15 17:30 UTC (13 seconds ago):

LJLJ 151730Z 09007KT 9999 FEW045 SCT070 BKN250 20/12 Q1013 NOSIG

TAF (pilot weather forecast)

Closest forecast is Ljubljana Jože Pučnik Airport, 15.1 nm (28.0 km) N. Retrieved 2019/07/15 15:07 UTC (2 hours ago):

TAF LJLJ 151400Z 1515/1615 10005KT 9999 FEW040 BKN100 PROB30 TEMPO 1515/1517 SHRA BKN050TCU BECMG 1518/1520 30003KT CAVOK BECMG 1607/1609 12005KT FEW040